Search for airport 
image banner adimage banner adimage banner ad
image banner ad

KUDD - Bermuda Dunes

Located in Palm Springs, United States

ICAO - UDD, IATA -

Data provided by Airmate  

General information

Coordinates: N33°44'54" W116°16'29"
Elevation is 73 feet MSL.
Magnetic variation is 14° East
View others Airports in California

Operational data

Special qualification required
Current time UTC:
Current local time:
Weather at : KTRM - Jacqueline Cochran Rgnl ( 17 km )
METAR: KTRM 212352Z AUTO 17006KT 10SM CLR 39/03 A2994 RMK AO2 SLP141 T03890033 10400 20356 56017
TAF: KTRM 212320Z 2200/2224 14008KT P6SM SKC FM220200 VRB04KT P6SM SKC FM222000 14008KT P6SM SKC
View NOTAMs / SUP AIP / TFR affecting this airport [VIEW]
Communications frequencies: [VIEW]

Runways:

RWY identifierQFULength (ft)Width (ft)SurfaceLDA (ft)
10116°500270ASPH
28296°500270ASPH

Airport contact information

Address: Palm Springs United States

Other aviation service providers

Flight schools

Desert West Aviation

Desert West Aviation

Satellite view of KUDD